createdAt,value
2019-06-20T00:00:50.078Z,72.10
2019-06-20T00:03:38.699Z,72.80
2019-06-20T00:06:27.531Z,72.80
2019-06-20T00:09:15.880Z,72.50
2019-06-20T00:12:04.368Z,71.80
2019-06-20T00:14:52.904Z,72.20
2019-06-20T00:17:41.633Z,71.80
2019-06-20T00:20:30.361Z,71.80
2019-06-20T00:23:18.770Z,71.60
2019-06-20T00:26:07.237Z,70.50
2019-06-20T00:28:55.845Z,70.50
2019-06-20T00:31:45.365Z,70.50
2019-06-20T00:34:34.048Z,71.00
2019-06-20T00:37:22.773Z,70.90
2019-06-20T00:40:11.703Z,70.60
2019-06-20T00:43:13.400Z,70.90
2019-06-20T00:45:50.962Z,70.30
2019-06-20T00:48:39.577Z,71.30
2019-06-20T00:51:28.428Z,70.20
2019-06-20T00:54:17.044Z,69.50
2019-06-20T00:57:05.602Z,68.60
2019-06-20T00:59:54.551Z,67.80
2019-06-20T01:02:42.996Z,67.30
2019-06-20T01:05:31.732Z,67.10
2019-06-20T01:08:20.604Z,66.90
2019-06-20T01:11:09.022Z,66.30
2019-06-20T01:13:58.209Z,65.50
2019-06-20T01:16:46.607Z,64.80
2019-06-20T01:19:35.107Z,64.10
2019-06-20T01:22:24.064Z,63.70
2019-06-20T01:25:12.884Z,64.40
2019-06-20T01:28:01.532Z,64.40
2019-06-20T01:30:50.077Z,65.60
2019-06-20T01:33:38.585Z,65.80
2019-06-20T01:36:27.288Z,66.50
2019-06-20T01:39:16.051Z,66.70
2019-06-20T01:42:04.697Z,67.60
2019-06-20T01:44:53.943Z,66.60
2019-06-20T01:47:42.380Z,68.30
2019-06-20T01:50:30.996Z,67.70
2019-06-20T01:53:19.720Z,67.50
2019-06-20T01:56:08.394Z,68.30
2019-06-20T01:58:56.999Z,69.10
2019-06-20T02:01:45.659Z,68.20
2019-06-20T02:04:34.499Z,68.10
2019-06-20T02:07:23.495Z,68.40
2019-06-20T02:10:12.506Z,68.00
2019-06-20T02:13:01.375Z,68.30
2019-06-20T02:15:50.986Z,69.00
2019-06-20T02:18:39.690Z,67.70
2019-06-20T02:21:28.492Z,66.70
2019-06-20T02:24:17.306Z,66.20
2019-06-20T02:27:05.447Z,65.80
2019-06-20T02:29:53.926Z,65.00
2019-06-20T02:32:42.669Z,65.00
2019-06-20T02:35:31.451Z,64.50
2019-06-20T02:38:20.354Z,64.10
2019-06-20T02:41:09.256Z,64.00
2019-06-20T02:43:57.441Z,63.60
2019-06-20T02:46:46.075Z,63.70
2019-06-20T02:49:34.892Z,63.70
2019-06-20T02:52:24.295Z,63.60
2019-06-20T02:55:13.176Z,63.60
2019-06-20T02:58:01.922Z,63.40
2019-06-20T03:00:56.256Z,64.00
2019-06-20T03:03:45.035Z,63.50
2019-06-20T03:06:33.919Z,62.70
2019-06-20T03:09:22.879Z,62.70
2019-06-20T03:12:11.859Z,62.90
2019-06-20T03:15:00.445Z,63.00
2019-06-20T03:17:48.942Z,62.80
2019-06-20T03:20:37.645Z,62.50
2019-06-20T03:23:26.468Z,62.00
2019-06-20T03:26:15.231Z,61.40
2019-06-20T03:29:03.554Z,61.60
2019-06-20T03:31:52.241Z,61.30
2019-06-20T03:34:40.734Z,61.20
2019-06-20T03:37:29.545Z,60.00
2019-06-20T03:40:18.662Z,59.30
2019-06-20T03:43:07.305Z,59.10
2019-06-20T03:45:57.005Z,58.40
2019-06-20T03:48:45.698Z,57.50
2019-06-20T03:51:34.404Z,57.00
2019-06-20T03:54:23.019Z,56.30
2019-06-20T03:57:11.665Z,56.40
2019-06-20T04:00:00.197Z,56.30
2019-06-20T04:02:48.956Z,55.90
2019-06-20T04:05:37.758Z,55.70
2019-06-20T04:08:26.244Z,55.50
2019-06-20T04:11:15.115Z,55.20
2019-06-20T04:14:03.602Z,54.80
2019-06-20T04:16:52.011Z,54.80
2019-06-20T04:19:42.191Z,54.80
2019-06-20T04:22:31.299Z,54.80
2019-06-20T04:25:20.024Z,54.80
2019-06-20T04:28:09.033Z,54.90
2019-06-20T04:30:57.716Z,55.20
2019-06-20T04:33:46.125Z,55.30
2019-06-20T04:36:34.908Z,55.40
2019-06-20T04:39:23.552Z,55.30
2019-06-20T04:42:12.266Z,55.40
2019-06-20T04:45:04.183Z,55.30
2019-06-20T04:47:52.776Z,55.70
2019-06-20T04:50:41.283Z,55.60
2019-06-20T04:53:30.578Z,55.90
2019-06-20T04:56:19.414Z,55.80
2019-06-20T04:59:07.936Z,55.80
2019-06-20T05:01:56.346Z,55.90
2019-06-20T05:04:44.833Z,55.80
2019-06-20T05:07:33.622Z,55.50
2019-06-20T05:10:22.073Z,55.40
2019-06-20T05:13:10.540Z,55.20
2019-06-20T05:15:59.274Z,54.50
2019-06-20T05:18:48.296Z,54.40
2019-06-20T05:21:37.184Z,53.90
2019-06-20T05:24:25.947Z,53.60
2019-06-20T05:27:14.615Z,53.40
2019-06-20T05:30:04.686Z,53.20
2019-06-20T05:32:53.044Z,53.00
2019-06-20T05:35:43.549Z,52.90
2019-06-20T05:38:31.844Z,53.30
2019-06-20T05:41:20.652Z,53.40
2019-06-20T05:44:09.027Z,53.20
2019-06-20T05:47:11.911Z,53.70
2019-06-20T05:49:47.887Z,53.40
2019-06-20T05:52:37.109Z,53.50
2019-06-20T05:55:25.475Z,53.50
2019-06-20T05:58:14.156Z,52.90
2019-06-20T06:01:02.686Z,53.20
2019-06-20T06:04:12.028Z,53.20
2019-06-20T06:07:29.519Z,53.10
2019-06-20T06:10:24.003Z,53.30
2019-06-20T06:13:12.758Z,53.30
2019-06-20T06:16:01.617Z,52.90
2019-06-20T06:18:50.014Z,52.70
2019-06-20T06:21:38.750Z,52.70
2019-06-20T06:24:27.435Z,52.90
2019-06-20T06:27:17.732Z,53.40
2019-06-20T06:30:11.321Z,53.30
2019-06-20T06:32:59.896Z,53.30
2019-06-20T06:35:48.308Z,53.40
2019-06-20T06:38:38.511Z,53.00
2019-06-20T06:41:30.173Z,52.60
2019-06-20T06:44:18.727Z,52.70
2019-06-20T06:47:07.124Z,52.50
2019-06-20T06:49:55.812Z,52.10
2019-06-20T06:52:44.491Z,51.60
2019-06-20T06:55:32.965Z,51.50
2019-06-20T06:58:23.844Z,51.00
2019-06-20T07:01:12.327Z,50.90
2019-06-20T07:04:01.144Z,50.40
2019-06-20T07:06:49.995Z,50.10
2019-06-20T07:09:38.482Z,50.20
2019-06-20T07:12:27.197Z,49.20
2019-06-20T07:15:17.408Z,49.40
2019-06-20T07:18:05.954Z,49.40
2019-06-20T07:20:56.873Z,48.80
2019-06-20T07:23:45.756Z,48.00
2019-06-20T07:26:34.122Z,48.00
2019-06-20T07:29:22.819Z,48.20
2019-06-20T07:32:11.266Z,48.60
2019-06-20T07:34:59.822Z,49.40
2019-06-20T07:37:48.950Z,49.40
2019-06-20T07:40:37.349Z,49.60
2019-06-20T07:43:29.232Z,49.80
2019-06-20T07:46:17.603Z,49.50
2019-06-20T07:49:06.049Z,49.20
2019-06-20T07:51:54.381Z,49.00
2019-06-20T07:54:43.030Z,48.30
2019-06-20T07:57:31.729Z,48.40
2019-06-20T08:00:20.355Z,48.40
2019-06-20T08:03:08.989Z,48.30
2019-06-20T08:05:57.713Z,47.70
2019-06-20T08:08:46.613Z,45.90
2019-06-20T08:11:55.177Z,45.50
2019-06-20T08:14:43.330Z,45.00
2019-06-20T08:17:35.661Z,45.70
2019-06-20T08:20:21.887Z,45.90
2019-06-20T08:23:10.339Z,46.10
2019-06-20T08:26:00.438Z,46.10
2019-06-20T08:29:07.122Z,46.60
2019-06-20T08:31:41.512Z,46.40
2019-06-20T08:34:30.304Z,45.90
2019-06-20T08:37:19.058Z,45.40
2019-06-20T08:40:08.274Z,45.60
2019-06-20T08:42:59.753Z,45.40
2019-06-20T08:45:47.631Z,43.40
2019-06-20T08:48:36.572Z,43.50
2019-06-20T08:51:25.622Z,42.00
2019-06-20T08:54:14.098Z,41.80
2019-06-20T08:57:04.015Z,41.90
2019-06-20T08:59:52.489Z,41.50
2019-06-20T09:02:41.343Z,41.60
2019-06-20T09:05:31.057Z,41.30
2019-06-20T09:08:21.301Z,41.90
2019-06-20T09:11:10.113Z,42.20
2019-06-20T09:13:59.241Z,41.50
2019-06-20T09:16:47.934Z,40.80
2019-06-20T09:19:36.411Z,41.60
2019-06-20T09:22:25.056Z,41.60
2019-06-20T09:25:15.729Z,40.90
2019-06-20T09:28:04.059Z,41.50
2019-06-20T09:30:53.928Z,41.80
2019-06-20T09:33:42.965Z,41.30
2019-06-20T09:36:32.680Z,41.50
2019-06-20T09:39:21.189Z,40.90
2019-06-20T09:42:09.921Z,40.10
2019-06-20T09:44:58.498Z,40.30
2019-06-20T09:47:47.214Z,40.50
2019-06-20T09:50:36.014Z,40.60
2019-06-20T09:53:24.797Z,39.60
2019-06-20T09:56:13.226Z,39.40
2019-06-20T09:59:01.999Z,39.20
2019-06-20T10:01:55.798Z,39.80
2019-06-20T10:04:40.933Z,39.70
2019-06-20T10:07:32.296Z,39.40
2019-06-20T10:10:22.180Z,39.50
2019-06-20T10:13:10.619Z,39.00
2019-06-20T10:16:03.527Z,39.50
2019-06-20T10:18:52.202Z,39.00
2019-06-20T10:21:42.356Z,39.70
2019-06-20T10:24:30.869Z,39.20
2019-06-20T10:27:22.764Z,39.50
2019-06-20T10:30:15.609Z,39.40
2019-06-20T10:33:04.553Z,39.50
2019-06-20T10:36:03.379Z,38.50
2019-06-20T10:38:52.605Z,37.90
2019-06-20T10:41:41.155Z,38.30
2019-06-20T10:44:30.091Z,38.00
2019-06-20T10:47:31.459Z,38.60
2019-06-20T10:50:16.124Z,40.00
2019-06-20T10:53:05.380Z,39.60
2019-06-20T10:55:58.772Z,39.50
2019-06-20T10:58:48.439Z,39.10
2019-06-20T11:01:39.871Z,38.20
2019-06-20T11:04:30.259Z,37.80
2019-06-20T11:07:18.913Z,37.70
2019-06-20T11:10:10.128Z,38.60
2019-06-20T11:12:58.635Z,38.80
2019-06-20T11:15:48.274Z,38.80
2019-06-20T11:18:38.374Z,38.80
2019-06-20T11:21:28.597Z,38.60
2019-06-20T11:24:17.117Z,37.80
2019-06-20T11:27:07.141Z,38.70
2019-06-20T11:29:55.408Z,39.20
2019-06-20T11:32:45.727Z,39.20
2019-06-20T11:35:36.115Z,39.10
2019-06-20T11:38:25.212Z,39.20
2019-06-20T11:41:13.581Z,39.20
2019-06-20T11:44:02.042Z,39.40
2019-06-20T11:46:50.595Z,40.10
2019-06-20T11:49:40.400Z,40.40
2019-06-20T11:52:29.500Z,40.30
2019-06-20T11:55:18.382Z,40.00
2019-06-20T11:58:07.201Z,39.40
2019-06-20T12:01:03.561Z,38.90
2019-06-20T12:03:46.724Z,39.10
2019-06-20T12:06:35.536Z,39.70
2019-06-20T12:09:24.363Z,40.70
2019-06-20T12:12:13.047Z,40.30
2019-06-20T12:15:01.881Z,40.60
2019-06-20T12:17:50.592Z,40.80
2019-06-20T12:20:39.631Z,40.80
2019-06-20T12:23:29.133Z,41.10
2019-06-20T12:26:18.682Z,41.20
2019-06-20T12:29:07.392Z,41.60
2019-06-20T12:31:56.323Z,41.30
2019-06-20T12:34:44.815Z,41.00
2019-06-20T12:37:35.419Z,41.00
2019-06-20T12:40:24.852Z,41.20
2019-06-20T12:43:14.717Z,41.50
2019-06-20T12:46:03.304Z,41.40
2019-06-20T12:48:51.988Z,41.60
2019-06-20T12:51:42.023Z,41.30
2019-06-20T12:54:31.759Z,41.10
2019-06-20T12:57:20.386Z,40.70
2019-06-20T13:00:10.969Z,40.10
2019-06-20T13:02:59.191Z,39.70
2019-06-20T13:05:49.018Z,39.30
2019-06-20T13:08:39.006Z,39.10
2019-06-20T13:11:27.828Z,39.40
2019-06-20T13:14:16.665Z,39.10
2019-06-20T13:17:05.250Z,39.50
2019-06-20T13:19:54.083Z,40.00
2019-06-20T13:22:42.853Z,40.50
2019-06-20T13:25:36.236Z,40.60
2019-06-20T13:28:24.233Z,40.90
2019-06-20T13:31:13.555Z,40.60
2019-06-20T13:34:02.428Z,40.80
2019-06-20T13:36:51.137Z,40.30
2019-06-20T13:39:40.367Z,40.40
2019-06-20T13:42:29.839Z,39.60
2019-06-20T13:45:23.796Z,39.20
2019-06-20T13:48:12.494Z,38.50
2019-06-20T13:51:01.011Z,38.50
2019-06-20T13:53:50.662Z,38.40
2019-06-20T13:56:39.089Z,39.00
2019-06-20T13:59:27.556Z,39.00
2019-06-20T14:02:16.307Z,39.20
2019-06-20T14:05:06.137Z,39.20
2019-06-20T14:07:56.007Z,39.50
2019-06-20T14:10:46.030Z,40.20
2019-06-20T14:13:35.044Z,41.10
2019-06-20T14:16:23.464Z,40.80
2019-06-20T14:19:12.108Z,40.80
2019-06-20T14:22:00.555Z,41.00
2019-06-20T14:24:50.832Z,40.70
2019-06-20T14:27:39.106Z,41.00
2019-06-20T14:30:27.850Z,45.90
2019-06-20T14:33:16.251Z,46.30
2019-06-20T14:36:05.004Z,51.60
2019-06-20T14:38:53.951Z,51.70
2019-06-20T14:41:43.662Z,50.70
2019-06-20T14:44:32.767Z,50.40
2019-06-20T14:47:21.168Z,50.90
2019-06-20T14:50:10.933Z,50.40
2019-06-20T14:52:59.727Z,50.40
2019-06-20T14:55:49.625Z,50.90
2019-06-20T14:58:38.565Z,50.10
2019-06-20T15:01:26.940Z,50.60
2019-06-20T15:04:15.472Z,50.00
2019-06-20T15:07:03.954Z,50.70
2019-06-20T15:09:53.207Z,51.50
2019-06-20T15:12:42.062Z,50.60
2019-06-20T15:15:31.615Z,50.20
2019-06-20T15:18:20.218Z,50.10
2019-06-20T15:21:08.843Z,50.10
2019-06-20T15:23:57.697Z,48.80
2019-06-20T15:26:47.644Z,49.00
2019-06-20T15:29:36.011Z,49.40
2019-06-20T15:32:25.128Z,49.40
2019-06-20T15:35:14.361Z,50.10
2019-06-20T15:38:03.144Z,49.70
2019-06-20T15:40:53.071Z,50.10
2019-06-20T15:43:42.206Z,50.60
2019-06-20T15:46:30.952Z,50.10
2019-06-20T15:49:19.624Z,50.70
2019-06-20T15:52:08.279Z,50.40
2019-06-20T15:54:56.904Z,50.60
2019-06-20T15:57:45.697Z,51.40
2019-06-20T16:00:34.243Z,51.60
2019-06-20T16:03:22.868Z,52.10
2019-06-20T16:06:11.592Z,52.80
2019-06-20T16:09:00.801Z,54.10
2019-06-20T16:12:10.415Z,53.60
2019-06-20T16:14:59.316Z,53.40
2019-06-20T16:17:48.283Z,54.20
2019-06-20T16:20:36.735Z,54.70
2019-06-20T16:23:25.507Z,54.90
2019-06-20T16:26:13.964Z,54.80
2019-06-20T16:29:02.974Z,54.90
2019-06-20T16:31:51.443Z,54.20
2019-06-20T16:34:39.880Z,55.00
2019-06-20T16:37:28.292Z,54.70
2019-06-20T16:40:19.022Z,54.30
2019-06-20T16:43:07.509Z,54.60
2019-06-20T16:45:56.241Z,55.80
2019-06-20T16:48:44.907Z,54.90
2019-06-20T16:51:33.230Z,54.20
2019-06-20T16:54:22.609Z,53.70
2019-06-20T16:57:11.438Z,53.80
2019-06-20T17:00:00.254Z,53.50
2019-06-20T17:02:48.692Z,55.20
2019-06-20T17:05:37.318Z,55.90
2019-06-20T17:08:26.100Z,56.70
2019-06-20T17:11:14.755Z,56.50
2019-06-20T17:14:03.811Z,56.40
2019-06-20T17:16:52.578Z,56.80
2019-06-20T17:19:42.206Z,58.40
2019-06-20T17:22:31.257Z,60.20
2019-06-20T17:25:19.822Z,63.40
2019-06-20T17:28:08.928Z,66.20
2019-06-20T17:30:57.150Z,66.40
2019-06-20T17:33:57.069Z,67.60
2019-06-20T17:36:35.572Z,70.40
2019-06-20T17:39:24.263Z,73.50
2019-06-20T17:42:13.196Z,75.80
2019-06-20T17:45:01.567Z,76.80
2019-06-20T17:47:50.092Z,78.90
2019-06-20T17:50:38.590Z,79.00
2019-06-20T17:53:27.146Z,80.60
2019-06-20T17:56:17.926Z,84.00
2019-06-20T17:59:05.637Z,85.40
2019-06-20T18:01:55.148Z,86.20
2019-06-20T18:04:43.716Z,85.80
2019-06-20T18:07:32.447Z,87.60
2019-06-20T18:10:21.655Z,86.50
2019-06-20T18:13:10.208Z,87.40
2019-06-20T18:15:58.808Z,85.50
2019-06-20T18:18:47.317Z,86.20
2019-06-20T18:21:35.800Z,89.30
2019-06-20T18:24:24.673Z,89.20
2019-06-20T18:27:13.077Z,90.20
2019-06-20T18:30:01.556Z,90.70
2019-06-20T18:32:50.333Z,91.50
2019-06-20T18:35:39.036Z,91.30
2019-06-20T18:38:27.623Z,91.10
2019-06-20T18:41:16.345Z,91.80
2019-06-20T18:44:05.108Z,92.60
2019-06-20T18:46:53.871Z,92.40
2019-06-20T18:49:42.309Z,91.90
2019-06-20T18:52:31.417Z,91.80
2019-06-20T18:55:19.807Z,92.20
2019-06-20T18:58:08.618Z,92.40
2019-06-20T19:00:57.629Z,93.00
2019-06-20T19:03:49.218Z,93.20
2019-06-20T19:06:40.766Z,93.60
2019-06-20T19:09:29.371Z,92.80
2019-06-20T19:12:18.342Z,94.00
2019-06-20T19:15:08.276Z,93.40
2019-06-20T19:18:05.763Z,93.00
2019-06-20T19:20:55.649Z,92.70
2019-06-20T19:23:44.264Z,92.90
2019-06-20T19:26:33.106Z,93.00
2019-06-20T19:29:21.810Z,92.90
2019-06-20T19:32:21.009Z,93.90
2019-06-20T19:35:11.350Z,93.70
2019-06-20T19:38:02.612Z,93.30
2019-06-20T19:40:54.689Z,93.50
2019-06-20T19:43:44.046Z,93.50
2019-06-20T19:46:32.857Z,92.90
2019-06-20T19:49:24.510Z,93.00
2019-06-20T19:52:15.034Z,93.50
2019-06-20T19:55:04.595Z,92.90
2019-06-20T19:57:53.437Z,93.20
2019-06-20T20:00:42.062Z,92.60
2019-06-20T20:03:31.702Z,92.50
2019-06-20T20:06:20.533Z,92.70
2019-06-20T20:09:09.621Z,92.30
2019-06-20T20:11:58.450Z,92.10
2019-06-20T20:14:47.285Z,92.00
2019-06-20T20:17:35.713Z,93.30
2019-06-20T20:20:24.726Z,92.30
2019-06-20T20:23:13.319Z,92.10
2019-06-20T20:26:01.917Z,91.80
2019-06-20T20:28:50.515Z,91.30
2019-06-20T20:31:39.569Z,92.00
2019-06-20T20:34:28.431Z,91.60
2019-06-20T20:37:20.707Z,91.50
2019-06-20T20:40:11.169Z,91.60
2019-06-20T20:43:00.583Z,91.90
2019-06-20T20:45:49.596Z,90.80
2019-06-20T20:48:38.536Z,90.60
2019-06-20T20:51:27.053Z,90.70
2019-06-20T20:54:15.963Z,90.70
2019-06-20T20:57:04.562Z,91.00
2019-06-20T20:59:53.184Z,91.30
2019-06-20T21:02:42.194Z,91.30
2019-06-20T21:05:30.494Z,91.60
2019-06-20T21:08:18.982Z,91.30
2019-06-20T21:11:07.834Z,91.40
2019-06-20T21:13:56.764Z,91.60
2019-06-20T21:16:45.478Z,92.60
2019-06-20T21:19:33.915Z,92.50
2019-06-20T21:22:22.265Z,92.70
2019-06-20T21:25:12.663Z,92.70
2019-06-20T21:28:01.210Z,92.20
2019-06-20T21:30:49.484Z,92.40
2019-06-20T21:33:37.908Z,92.50
2019-06-20T21:36:26.681Z,92.20
2019-06-20T21:39:15.404Z,92.80
2019-06-20T21:42:04.061Z,92.70
2019-06-20T21:44:52.724Z,93.60
2019-06-20T21:47:40.975Z,92.80
2019-06-20T21:50:29.840Z,92.70
2019-06-20T21:53:18.476Z,92.90
2019-06-20T21:56:07.520Z,92.60
2019-06-20T21:58:55.585Z,92.80
2019-06-20T22:01:44.229Z,92.50
2019-06-20T22:04:32.500Z,92.70
2019-06-20T22:07:21.262Z,92.80
2019-06-20T22:10:10.282Z,92.70
2019-06-20T22:12:58.887Z,92.90
2019-06-20T22:15:47.670Z,93.20
2019-06-20T22:18:36.384Z,93.40
2019-06-20T22:21:24.862Z,93.60
2019-06-20T22:24:13.585Z,93.50
2019-06-20T22:27:02.303Z,93.20
2019-06-20T22:29:51.052Z,93.40
2019-06-20T22:32:39.765Z,93.20
2019-06-20T22:35:28.216Z,93.00
2019-06-20T22:38:16.839Z,93.00
2019-06-20T22:41:05.494Z,92.80
2019-06-20T22:43:54.188Z,92.90
2019-06-20T22:46:42.921Z,93.00
2019-06-20T22:49:31.408Z,93.20
2019-06-20T22:52:20.212Z,92.90
2019-06-20T22:55:09.230Z,93.20
2019-06-20T22:57:58.279Z,93.20
2019-06-20T23:00:46.870Z,93.40
2019-06-20T23:03:35.283Z,93.30
2019-06-20T23:06:23.829Z,93.20
2019-06-20T23:09:12.228Z,93.20
2019-06-20T23:12:00.853Z,93.00
2019-06-20T23:14:49.331Z,92.60
2019-06-20T23:17:38.046Z,93.00
2019-06-20T23:20:26.878Z,92.90
2019-06-20T23:23:15.643Z,93.20
2019-06-20T23:26:07.140Z,93.10
2019-06-20T23:29:13.724Z,93.20
2019-06-20T23:32:02.223Z,93.60
2019-06-20T23:34:50.955Z,93.20
2019-06-20T23:37:39.827Z,93.20
2019-06-20T23:40:28.344Z,93.20
2019-06-20T23:43:16.968Z,93.30
2019-06-20T23:46:06.470Z,93.60
2019-06-20T23:48:55.894Z,93.70
2019-06-20T23:51:46.408Z,93.70
2019-06-20T23:54:34.731Z,93.40
2019-06-20T23:57:23.088Z,93.70
